sensor_id;sensor_type;location;lat;lon;timestamp;P1;durP1;ratioP1;P2;durP2;ratioP2
80576;SDS011;69937;52.420;10.538;2023-10-31T00:04:15;6.93;;;3.13;;
80576;SDS011;69937;52.420;10.538;2023-10-31T00:09:15;8.15;;;2.97;;
80576;SDS011;69937;52.420;10.538;2023-10-31T00:14:16;6.72;;;3.25;;
80576;SDS011;69937;52.420;10.538;2023-10-31T00:19:16;8.00;;;2.83;;
80576;SDS011;69937;52.420;10.538;2023-10-31T00:24:17;3.47;;;2.08;;
80576;SDS011;69937;52.420;10.538;2023-10-31T00:29:17;7.85;;;2.50;;
80576;SDS011;69937;52.420;10.538;2023-10-31T00:34:18;3.55;;;1.85;;
80576;SDS011;69937;52.420;10.538;2023-10-31T00:39:19;2.95;;;1.95;;
80576;SDS011;69937;52.420;10.538;2023-10-31T00:44:19;3.85;;;2.45;;
80576;SDS011;69937;52.420;10.538;2023-10-31T00:49:20;2.30;;;1.88;;
80576;SDS011;69937;52.420;10.538;2023-10-31T00:54:20;2.45;;;1.73;;
80576;SDS011;69937;52.420;10.538;2023-10-31T00:59:21;3.40;;;1.77;;
80576;SDS011;69937;52.420;10.538;2023-10-31T01:04:21;5.35;;;2.22;;
80576;SDS011;69937;52.420;10.538;2023-10-31T01:09:22;4.28;;;1.88;;
80576;SDS011;69937;52.420;10.538;2023-10-31T01:14:22;4.43;;;1.90;;
80576;SDS011;69937;52.420;10.538;2023-10-31T01:19:23;2.50;;;1.98;;
80576;SDS011;69937;52.420;10.538;2023-10-31T01:24:23;7.35;;;2.33;;
80576;SDS011;69937;52.420;10.538;2023-10-31T01:29:24;3.15;;;1.95;;
80576;SDS011;69937;52.420;10.538;2023-10-31T01:34:25;2.50;;;1.63;;
80576;SDS011;69937;52.420;10.538;2023-10-31T01:39:25;4.07;;;2.22;;
80576;SDS011;69937;52.420;10.538;2023-10-31T01:44:26;3.92;;;2.42;;
80576;SDS011;69937;52.420;10.538;2023-10-31T01:49:26;5.95;;;2.50;;
80576;SDS011;69937;52.420;10.538;2023-10-31T01:54:27;5.35;;;3.80;;
80576;SDS011;69937;52.420;10.538;2023-10-31T01:59:28;4.32;;;2.78;;
80576;SDS011;69937;52.420;10.538;2023-10-31T02:04:28;6.32;;;2.72;;
80576;SDS011;69937;52.420;10.538;2023-10-31T02:09:29;6.10;;;2.72;;
80576;SDS011;69937;52.420;10.538;2023-10-31T02:14:30;7.82;;;4.25;;
80576;SDS011;69937;52.420;10.538;2023-10-31T02:19:31;5.10;;;2.45;;
80576;SDS011;69937;52.420;10.538;2023-10-31T02:24:31;14.20;;;3.17;;
80576;SDS011;69937;52.420;10.538;2023-10-31T02:29:32;4.47;;;3.00;;
80576;SDS011;69937;52.420;10.538;2023-10-31T02:34:32;9.90;;;4.63;;
80576;SDS011;69937;52.420;10.538;2023-10-31T02:39:34;7.45;;;4.55;;
80576;SDS011;69937;52.420;10.538;2023-10-31T02:44:35;4.35;;;3.05;;
80576;SDS011;69937;52.420;10.538;2023-10-31T02:49:35;5.00;;;4.05;;
80576;SDS011;69937;52.420;10.538;2023-10-31T02:54:36;5.40;;;3.53;;
80576;SDS011;69937;52.420;10.538;2023-10-31T02:59:37;4.30;;;3.10;;
80576;SDS011;69937;52.420;10.538;2023-10-31T03:04:37;6.20;;;3.28;;
80576;SDS011;69937;52.420;10.538;2023-10-31T03:09:38;4.78;;;3.28;;
80576;SDS011;69937;52.420;10.538;2023-10-31T03:14:38;9.07;;;3.25;;
80576;SDS011;69937;52.420;10.538;2023-10-31T03:19:39;5.78;;;3.58;;
80576;SDS011;69937;52.420;10.538;2023-10-31T03:24:39;5.45;;;3.50;;
80576;SDS011;69937;52.420;10.538;2023-10-31T03:29:40;7.30;;;3.60;;
80576;SDS011;69937;52.420;10.538;2023-10-31T03:34:41;6.80;;;2.97;;
80576;SDS011;69937;52.420;10.538;2023-10-31T03:39:41;6.50;;;3.50;;
80576;SDS011;69937;52.420;10.538;2023-10-31T03:44:42;4.85;;;3.78;;
80576;SDS011;69937;52.420;10.538;2023-10-31T03:49:43;4.32;;;3.22;;
80576;SDS011;69937;52.420;10.538;2023-10-31T03:54:43;5.78;;;3.60;;
80576;SDS011;69937;52.420;10.538;2023-10-31T03:59:44;4.63;;;2.92;;
80576;SDS011;69937;52.420;10.538;2023-10-31T04:04:44;8.48;;;3.47;;
80576;SDS011;69937;52.420;10.538;2023-10-31T04:09:45;5.60;;;3.67;;
80576;SDS011;69937;52.420;10.538;2023-10-31T04:14:45;5.60;;;3.50;;
80576;SDS011;69937;52.420;10.538;2023-10-31T04:19:46;7.53;;;3.35;;
80576;SDS011;69937;52.420;10.538;2023-10-31T04:24:46;6.28;;;3.35;;
80576;SDS011;69937;52.420;10.538;2023-10-31T04:29:47;3.20;;;2.13;;
80576;SDS011;69937;52.420;10.538;2023-10-31T04:34:48;2.55;;;2.35;;
80576;SDS011;69937;52.420;10.538;2023-10-31T04:39:48;3.90;;;2.15;;
80576;SDS011;69937;52.420;10.538;2023-10-31T04:44:48;2.42;;;2.22;;
80576;SDS011;69937;52.420;10.538;2023-10-31T04:49:49;2.63;;;2.25;;
80576;SDS011;69937;52.420;10.538;2023-10-31T04:54:50;3.03;;;2.75;;
80576;SDS011;69937;52.420;10.538;2023-10-31T04:59:50;3.03;;;2.78;;
80576;SDS011;69937;52.420;10.538;2023-10-31T05:04:54;3.03;;;2.80;;
80576;SDS011;69937;52.420;10.538;2023-10-31T05:09:54;2.10;;;1.90;;
80576;SDS011;69937;52.420;10.538;2023-10-31T05:14:55;1.90;;;1.67;;
80576;SDS011;69937;52.420;10.538;2023-10-31T05:19:56;1.92;;;1.73;;
80576;SDS011;69937;52.420;10.538;2023-10-31T05:24:56;2.50;;;2.30;;
80576;SDS011;69937;52.420;10.538;2023-10-31T05:29:57;1.88;;;1.70;;
80576;SDS011;69937;52.420;10.538;2023-10-31T05:34:58;3.50;;;1.98;;
80576;SDS011;69937;52.420;10.538;2023-10-31T05:39:58;1.65;;;1.55;;
80576;SDS011;69937;52.420;10.538;2023-10-31T05:44:59;1.83;;;1.65;;
80576;SDS011;69937;52.420;10.538;2023-10-31T05:50:00;1.50;;;1.40;;
80576;SDS011;69937;52.420;10.538;2023-10-31T05:55:00;1.48;;;1.38;;
80576;SDS011;69937;52.420;10.538;2023-10-31T06:00:01;5.13;;;1.88;;
80576;SDS011;69937;52.420;10.538;2023-10-31T06:05:01;1.60;;;1.50;;
80576;SDS011;69937;52.420;10.538;2023-10-31T06:10:02;1.75;;;1.65;;
80576;SDS011;69937;52.420;10.538;2023-10-31T06:15:03;2.65;;;2.25;;
80576;SDS011;69937;52.420;10.538;2023-10-31T06:20:03;1.48;;;1.38;;
80576;SDS011;69937;52.420;10.538;2023-10-31T06:25:05;1.27;;;1.17;;
80576;SDS011;69937;52.420;10.538;2023-10-31T06:30:06;3.47;;;1.20;;
80576;SDS011;69937;52.420;10.538;2023-10-31T06:35:07;2.17;;;1.23;;
80576;SDS011;69937;52.420;10.538;2023-10-31T06:40:08;2.58;;;2.40;;
80576;SDS011;69937;52.420;10.538;2023-10-31T06:45:09;1.40;;;1.30;;
80576;SDS011;69937;52.420;10.538;2023-10-31T06:50:10;1.30;;;1.17;;
80576;SDS011;69937;52.420;10.538;2023-10-31T06:55:10;1.85;;;1.02;;
80576;SDS011;69937;52.420;10.538;2023-10-31T07:00:11;1.63;;;1.52;;
80576;SDS011;69937;52.420;10.538;2023-10-31T07:05:12;1.88;;;1.73;;
80576;SDS011;69937;52.420;10.538;2023-10-31T07:10:14;1.65;;;1.20;;
80576;SDS011;69937;52.420;10.538;2023-10-31T07:15:14;1.25;;;1.15;;
80576;SDS011;69937;52.420;10.538;2023-10-31T07:20:15;1.75;;;1.65;;
80576;SDS011;69937;52.420;10.538;2023-10-31T07:25:15;4.18;;;1.70;;
80576;SDS011;69937;52.420;10.538;2023-10-31T07:30:16;1.42;;;1.33;;
80576;SDS011;69937;52.420;10.538;2023-10-31T07:35:16;2.35;;;2.15;;
80576;SDS011;69937;52.420;10.538;2023-10-31T07:40:19;3.58;;;3.28;;
80576;SDS011;69937;52.420;10.538;2023-10-31T07:45:20;5.65;;;1.85;;
80576;SDS011;69937;52.420;10.538;2023-10-31T07:50:20;1.60;;;1.50;;
80576;SDS011;69937;52.420;10.538;2023-10-31T07:55:21;2.33;;;1.98;;
80576;SDS011;69937;52.420;10.538;2023-10-31T08:00:21;1.73;;;1.63;;
80576;SDS011;69937;52.420;10.538;2023-10-31T08:05:22;1.80;;;1.70;;
80576;SDS011;69937;52.420;10.538;2023-10-31T08:10:22;2.72;;;1.55;;
80576;SDS011;69937;52.420;10.538;2023-10-31T08:15:23;4.35;;;1.92;;
80576;SDS011;69937;52.420;10.538;2023-10-31T08:20:23;4.45;;;2.10;;
80576;SDS011;69937;52.420;10.538;2023-10-31T08:25:24;2.40;;;2.10;;
80576;SDS011;69937;52.420;10.538;2023-10-31T08:30:25;4.13;;;2.40;;
80576;SDS011;69937;52.420;10.538;2023-10-31T08:35:25;2.97;;;2.05;;
80576;SDS011;69937;52.420;10.538;2023-10-31T08:40:26;2.20;;;2.00;;
80576;SDS011;69937;52.420;10.538;2023-10-31T08:45:27;1.52;;;1.42;;
80576;SDS011;69937;52.420;10.538;2023-10-31T08:50:27;6.45;;;1.55;;
80576;SDS011;69937;52.420;10.538;2023-10-31T08:55:28;1.63;;;1.48;;
80576;SDS011;69937;52.420;10.538;2023-10-31T09:00:28;2.28;;;2.08;;
80576;SDS011;69937;52.420;10.538;2023-10-31T09:05:29;2.05;;;1.33;;
80576;SDS011;69937;52.420;10.538;2023-10-31T09:10:29;1.52;;;1.38;;
80576;SDS011;69937;52.420;10.538;2023-10-31T09:15:30;1.95;;;1.52;;
80576;SDS011;69937;52.420;10.538;2023-10-31T09:20:30;1.33;;;1.23;;
80576;SDS011;69937;52.420;10.538;2023-10-31T09:25:31;2.30;;;1.58;;
80576;SDS011;69937;52.420;10.538;2023-10-31T09:30:32;1.48;;;1.27;;
80576;SDS011;69937;52.420;10.538;2023-10-31T09:35:32;1.40;;;1.10;;
80576;SDS011;69937;52.420;10.538;2023-10-31T09:40:33;2.17;;;1.45;;
80576;SDS011;69937;52.420;10.538;2023-10-31T09:45:37;2.67;;;1.25;;
80576;SDS011;69937;52.420;10.538;2023-10-31T09:50:37;0.90;;;0.80;;
80576;SDS011;69937;52.420;10.538;2023-10-31T09:55:38;3.42;;;1.08;;
80576;SDS011;69937;52.420;10.538;2023-10-31T10:00:39;1.17;;;1.08;;
80576;SDS011;69937;52.420;10.538;2023-10-31T10:05:40;2.25;;;0.93;;
80576;SDS011;69937;52.420;10.538;2023-10-31T10:10:44;1.58;;;1.45;;
80576;SDS011;69937;52.420;10.538;2023-10-31T10:21:01;3.13;;;1.75;;
80576;SDS011;69937;52.420;10.538;2023-10-31T10:26:03;2.28;;;1.95;;
80576;SDS011;69937;52.420;10.538;2023-10-31T10:31:03;1.88;;;1.77;;
80576;SDS011;69937;52.420;10.538;2023-10-31T10:36:06;2.72;;;1.65;;
80576;SDS011;69937;52.420;10.538;2023-10-31T10:41:10;1.67;;;1.58;;
80576;SDS011;69937;52.420;10.538;2023-10-31T10:46:14;2.53;;;2.42;;
80576;SDS011;69937;52.420;10.538;2023-10-31T10:51:18;1.88;;;1.45;;
80576;SDS011;69937;52.420;10.538;2023-10-31T10:56:34;1.55;;;1.45;;
80576;SDS011;69937;52.420;10.538;2023-10-31T11:01:43;1.20;;;1.10;;
80576;SDS011;69937;52.420;10.538;2023-10-31T11:06:46;1.13;;;1.02;;
80576;SDS011;69937;52.420;10.538;2023-10-31T11:11:48;1.05;;;0.95;;
80576;SDS011;69937;52.420;10.538;2023-10-31T11:16:53;1.40;;;1.30;;
80576;SDS011;69937;52.420;10.538;2023-10-31T11:21:59;1.73;;;1.50;;
80576;SDS011;69937;52.420;10.538;2023-10-31T11:27:02;1.80;;;1.45;;
80576;SDS011;69937;52.420;10.538;2023-10-31T11:32:04;1.90;;;1.73;;
80576;SDS011;69937;52.420;10.538;2023-10-31T11:37:24;1.88;;;1.45;;
80576;SDS011;69937;52.420;10.538;2023-10-31T11:42:34;4.07;;;1.63;;
80576;SDS011;69937;52.420;10.538;2023-10-31T11:47:46;1.17;;;1.08;;
80576;SDS011;69937;52.420;10.538;2023-10-31T11:53:00;3.47;;;1.55;;
80576;SDS011;69937;52.420;10.538;2023-10-31T12:03:20;1.48;;;1.33;;
80576;SDS011;69937;52.420;10.538;2023-10-31T12:08:25;1.55;;;1.45;;
80576;SDS011;69937;52.420;10.538;2023-10-31T12:13:33;5.90;;;1.77;;
80576;SDS011;69937;52.420;10.538;2023-10-31T12:18:34;1.38;;;1.27;;
80576;SDS011;69937;52.420;10.538;2023-10-31T12:23:35;1.80;;;1.70;;
80576;SDS011;69937;52.420;10.538;2023-10-31T12:28:36;1.85;;;1.10;;
80576;SDS011;69937;52.420;10.538;2023-10-31T12:33:38;1.40;;;1.30;;
80576;SDS011;69937;52.420;10.538;2023-10-31T12:38:38;1.73;;;1.27;;
80576;SDS011;69937;52.420;10.538;2023-10-31T12:43:39;2.75;;;1.30;;
80576;SDS011;69937;52.420;10.538;2023-10-31T12:48:40;1.60;;;1.50;;
80576;SDS011;69937;52.420;10.538;2023-10-31T12:53:40;1.65;;;1.42;;
80576;SDS011;69937;52.420;10.538;2023-10-31T12:58:40;2.03;;;1.40;;
80576;SDS011;69937;52.420;10.538;2023-10-31T13:03:50;1.45;;;1.25;;
80576;SDS011;69937;52.420;10.538;2023-10-31T13:08:51;1.52;;;1.27;;
80576;SDS011;69937;52.420;10.538;2023-10-31T13:13:52;1.63;;;1.50;;
80576;SDS011;69937;52.420;10.538;2023-10-31T13:18:53;1.27;;;1.17;;
80576;SDS011;69937;52.420;10.538;2023-10-31T13:23:56;2.25;;;1.83;;
80576;SDS011;69937;52.420;10.538;2023-10-31T13:28:57;2.47;;;2.33;;
80576;SDS011;69937;52.420;10.538;2023-10-31T13:33:58;2.95;;;1.40;;
80576;SDS011;69937;52.420;10.538;2023-10-31T13:38:58;1.70;;;1.13;;
80576;SDS011;69937;52.420;10.538;2023-10-31T13:43:59;1.73;;;1.52;;
80576;SDS011;69937;52.420;10.538;2023-10-31T13:48:59;3.10;;;1.42;;
80576;SDS011;69937;52.420;10.538;2023-10-31T13:54:00;2.50;;;1.40;;
80576;SDS011;69937;52.420;10.538;2023-10-31T13:59:00;3.92;;;1.98;;
80576;SDS011;69937;52.420;10.538;2023-10-31T14:04:01;2.25;;;2.05;;
80576;SDS011;69937;52.420;10.538;2023-10-31T14:09:01;1.70;;;1.58;;
80576;SDS011;69937;52.420;10.538;2023-10-31T14:14:04;1.85;;;1.45;;
80576;SDS011;69937;52.420;10.538;2023-10-31T14:19:10;2.72;;;1.80;;
80576;SDS011;69937;52.420;10.538;2023-10-31T14:24:11;2.45;;;1.40;;
80576;SDS011;69937;52.420;10.538;2023-10-31T14:29:12;4.20;;;1.88;;
80576;SDS011;69937;52.420;10.538;2023-10-31T14:34:12;3.35;;;1.70;;
80576;SDS011;69937;52.420;10.538;2023-10-31T14:39:13;4.35;;;2.35;;
80576;SDS011;69937;52.420;10.538;2023-10-31T14:44:13;2.72;;;1.83;;
80576;SDS011;69937;52.420;10.538;2023-10-31T14:49:15;4.18;;;1.75;;
80576;SDS011;69937;52.420;10.538;2023-10-31T14:54:16;3.67;;;2.28;;
80576;SDS011;69937;52.420;10.538;2023-10-31T14:59:16;1.40;;;1.20;;
80576;SDS011;69937;52.420;10.538;2023-10-31T15:04:17;3.53;;;1.73;;
80576;SDS011;69937;52.420;10.538;2023-10-31T15:09:17;2.83;;;1.30;;
80576;SDS011;69937;52.420;10.538;2023-10-31T15:14:19;2.08;;;1.50;;
80576;SDS011;69937;52.420;10.538;2023-10-31T15:19:20;2.58;;;1.88;;
80576;SDS011;69937;52.420;10.538;2023-10-31T15:24:20;4.47;;;2.95;;
80576;SDS011;69937;52.420;10.538;2023-10-31T15:29:21;9.63;;;4.60;;
80576;SDS011;69937;52.420;10.538;2023-10-31T15:34:21;5.28;;;2.40;;
80576;SDS011;69937;52.420;10.538;2023-10-31T15:39:22;2.05;;;1.85;;
80576;SDS011;69937;52.420;10.538;2023-10-31T15:44:23;3.80;;;1.83;;
80576;SDS011;69937;52.420;10.538;2023-10-31T15:49:23;3.28;;;2.55;;
80576;SDS011;69937;52.420;10.538;2023-10-31T15:54:24;4.75;;;3.03;;
80576;SDS011;69937;52.420;10.538;2023-10-31T15:59:24;3.28;;;2.13;;
80576;SDS011;69937;52.420;10.538;2023-10-31T16:04:26;4.05;;;2.22;;
80576;SDS011;69937;52.420;10.538;2023-10-31T16:09:27;4.05;;;3.20;;
80576;SDS011;69937;52.420;10.538;2023-10-31T16:14:28;3.55;;;1.77;;
80576;SDS011;69937;52.420;10.538;2023-10-31T16:19:28;2.35;;;2.15;;
80576;SDS011;69937;52.420;10.538;2023-10-31T16:24:29;7.07;;;1.83;;
80576;SDS011;69937;52.420;10.538;2023-10-31T16:29:30;4.07;;;1.95;;
80576;SDS011;69937;52.420;10.538;2023-10-31T16:34:31;2.03;;;1.90;;
80576;SDS011;69937;52.420;10.538;2023-10-31T16:39:32;1.83;;;1.67;;
80576;SDS011;69937;52.420;10.538;2023-10-31T16:44:32;1.95;;;1.75;;
80576;SDS011;69937;52.420;10.538;2023-10-31T16:49:33;3.75;;;1.77;;
80576;SDS011;69937;52.420;10.538;2023-10-31T16:54:34;1.80;;;1.52;;
80576;SDS011;69937;52.420;10.538;2023-10-31T16:59:34;2.65;;;1.73;;
80576;SDS011;69937;52.420;10.538;2023-10-31T17:04:35;4.35;;;1.88;;
80576;SDS011;69937;52.420;10.538;2023-10-31T17:09:36;3.67;;;1.95;;
80576;SDS011;69937;52.420;10.538;2023-10-31T17:14:37;2.72;;;1.80;;
80576;SDS011;69937;52.420;10.538;2023-10-31T17:19:37;2.05;;;1.42;;
80576;SDS011;69937;52.420;10.538;2023-10-31T17:24:38;3.45;;;2.55;;
80576;SDS011;69937;52.420;10.538;2023-10-31T17:29:38;2.45;;;1.75;;
80576;SDS011;69937;52.420;10.538;2023-10-31T17:34:39;2.25;;;2.05;;
80576;SDS011;69937;52.420;10.538;2023-10-31T17:39:39;3.08;;;2.42;;
80576;SDS011;69937;52.420;10.538;2023-10-31T17:44:40;3.63;;;1.48;;
80576;SDS011;69937;52.420;10.538;2023-10-31T17:49:40;3.35;;;2.10;;
80576;SDS011;69937;52.420;10.538;2023-10-31T17:54:41;3.30;;;2.30;;
80576;SDS011;69937;52.420;10.538;2023-10-31T17:59:42;4.10;;;2.75;;
80576;SDS011;69937;52.420;10.538;2023-10-31T18:04:42;2.30;;;2.08;;
80576;SDS011;69937;52.420;10.538;2023-10-31T18:09:45;3.05;;;2.22;;
80576;SDS011;69937;52.420;10.538;2023-10-31T18:14:46;1.63;;;1.52;;
80576;SDS011;69937;52.420;10.538;2023-10-31T18:19:46;2.10;;;1.90;;
80576;SDS011;69937;52.420;10.538;2023-10-31T18:24:47;2.10;;;1.65;;
80576;SDS011;69937;52.420;10.538;2023-10-31T18:29:50;3.10;;;1.33;;
80576;SDS011;69937;52.420;10.538;2023-10-31T18:34:52;4.03;;;1.95;;
80576;SDS011;69937;52.420;10.538;2023-10-31T18:39:52;1.40;;;1.30;;
80576;SDS011;69937;52.420;10.538;2023-10-31T18:44:53;2.33;;;2.08;;
80576;SDS011;69937;52.420;10.538;2023-10-31T18:49:53;3.70;;;3.33;;
80576;SDS011;69937;52.420;10.538;2023-10-31T18:54:54;1.70;;;1.60;;
80576;SDS011;69937;52.420;10.538;2023-10-31T19:05:03;2.22;;;2.03;;
80576;SDS011;69937;52.420;10.538;2023-10-31T19:10:04;5.20;;;3.08;;
80576;SDS011;69937;52.420;10.538;2023-10-31T19:15:05;5.25;;;3.63;;
80576;SDS011;69937;52.420;10.538;2023-10-31T19:20:07;8.82;;;3.88;;
80576;SDS011;69937;52.420;10.538;2023-10-31T19:25:07;5.78;;;4.30;;
80576;SDS011;69937;52.420;10.538;2023-10-31T19:30:08;3.88;;;2.35;;
80576;SDS011;69937;52.420;10.538;2023-10-31T19:35:09;3.63;;;2.40;;
80576;SDS011;69937;52.420;10.538;2023-10-31T19:40:16;2.95;;;2.10;;
80576;SDS011;69937;52.420;10.538;2023-10-31T19:45:20;2.97;;;2.55;;
80576;SDS011;69937;52.420;10.538;2023-10-31T19:50:21;6.40;;;2.38;;
80576;SDS011;69937;52.420;10.538;2023-10-31T19:55:21;4.45;;;3.88;;
80576;SDS011;69937;52.420;10.538;2023-10-31T20:00:22;15.05;;;2.42;;
80576;SDS011;69937;52.420;10.538;2023-10-31T20:05:25;3.15;;;1.88;;
80576;SDS011;69937;52.420;10.538;2023-10-31T20:10:25;2.42;;;2.22;;
80576;SDS011;69937;52.420;10.538;2023-10-31T20:15:26;3.85;;;2.45;;
80576;SDS011;69937;52.420;10.538;2023-10-31T20:20:26;2.70;;;2.00;;
80576;SDS011;69937;52.420;10.538;2023-10-31T20:25:27;3.85;;;3.55;;
80576;SDS011;69937;52.420;10.538;2023-10-31T20:30:27;2.72;;;2.53;;
80576;SDS011;69937;52.420;10.538;2023-10-31T20:35:29;9.48;;;2.33;;
80576;SDS011;69937;52.420;10.538;2023-10-31T20:40:29;2.80;;;2.17;;
80576;SDS011;69937;52.420;10.538;2023-10-31T20:45:30;3.03;;;2.67;;
80576;SDS011;69937;52.420;10.538;2023-10-31T20:50:32;4.55;;;3.53;;
80576;SDS011;69937;52.420;10.538;2023-10-31T20:55:32;2.30;;;2.20;;
80576;SDS011;69937;52.420;10.538;2023-10-31T21:00:33;2.38;;;2.17;;
80576;SDS011;69937;52.420;10.538;2023-10-31T21:05:34;2.70;;;2.50;;
80576;SDS011;69937;52.420;10.538;2023-10-31T21:10:36;2.50;;;2.30;;
80576;SDS011;69937;52.420;10.538;2023-10-31T21:15:36;4.13;;;3.83;;
80576;SDS011;69937;52.420;10.538;2023-10-31T21:20:37;3.55;;;2.00;;
80576;SDS011;69937;52.420;10.538;2023-10-31T21:25:38;3.42;;;1.70;;
80576;SDS011;69937;52.420;10.538;2023-10-31T21:30:39;3.10;;;1.80;;
80576;SDS011;69937;52.420;10.538;2023-10-31T21:35:39;2.25;;;2.05;;
80576;SDS011;69937;52.420;10.538;2023-10-31T21:40:40;3.13;;;2.47;;
80576;SDS011;69937;52.420;10.538;2023-10-31T21:45:40;2.20;;;1.70;;
80576;SDS011;69937;52.420;10.538;2023-10-31T21:50:41;2.67;;;2.47;;
80576;SDS011;69937;52.420;10.538;2023-10-31T21:55:41;3.75;;;1.95;;
80576;SDS011;69937;52.420;10.538;2023-10-31T22:00:43;3.33;;;2.30;;
80576;SDS011;69937;52.420;10.538;2023-10-31T22:05:44;3.03;;;2.45;;
80576;SDS011;69937;52.420;10.538;2023-10-31T22:10:44;2.42;;;2.22;;
80576;SDS011;69937;52.420;10.538;2023-10-31T22:15:45;4.18;;;3.88;;
80576;SDS011;69937;52.420;10.538;2023-10-31T22:20:46;3.10;;;2.20;;
80576;SDS011;69937;52.420;10.538;2023-10-31T22:25:47;5.57;;;4.07;;
80576;SDS011;69937;52.420;10.538;2023-10-31T22:30:49;2.33;;;2.13;;
80576;SDS011;69937;52.420;10.538;2023-10-31T22:35:49;2.80;;;2.60;;
80576;SDS011;69937;52.420;10.538;2023-10-31T22:40:50;2.47;;;2.25;;
80576;SDS011;69937;52.420;10.538;2023-10-31T22:45:52;5.55;;;2.30;;
80576;SDS011;69937;52.420;10.538;2023-10-31T22:50:52;5.88;;;3.00;;
80576;SDS011;69937;52.420;10.538;2023-10-31T22:55:54;3.15;;;2.58;;
80576;SDS011;69937;52.420;10.538;2023-10-31T23:00:54;3.35;;;1.92;;
80576;SDS011;69937;52.420;10.538;2023-10-31T23:05:55;2.42;;;2.25;;
80576;SDS011;69937;52.420;10.538;2023-10-31T23:10:56;2.97;;;2.78;;
80576;SDS011;69937;52.420;10.538;2023-10-31T23:15:57;4.30;;;2.55;;
80576;SDS011;69937;52.420;10.538;2023-10-31T23:20:57;2.83;;;2.38;;
80576;SDS011;69937;52.420;10.538;2023-10-31T23:25:58;2.80;;;2.40;;
80576;SDS011;69937;52.420;10.538;2023-10-31T23:30:58;4.30;;;2.60;;
80576;SDS011;69937;52.420;10.538;2023-10-31T23:35:59;4.70;;;2.45;;
80576;SDS011;69937;52.420;10.538;2023-10-31T23:40:59;2.88;;;2.67;;
80576;SDS011;69937;52.420;10.538;2023-10-31T23:46:00;4.25;;;3.80;;
80576;SDS011;69937;52.420;10.538;2023-10-31T23:51:01;4.45;;;4.03;;
80576;SDS011;69937;52.420;10.538;2023-10-31T23:56:01;2.92;;;2.58;;
